createdAt,value
2017-06-17T00:01:11.946Z,16.39
2017-06-17T00:03:38.682Z,16.38
2017-06-17T00:06:05.479Z,16.32
2017-06-17T00:08:32.239Z,16.40
2017-06-17T00:11:07.047Z,16.38
2017-06-17T00:13:33.849Z,16.32
2017-06-17T00:16:00.598Z,16.29
2017-06-17T00:18:27.400Z,16.24
2017-06-17T00:20:54.165Z,16.25
2017-06-17T00:23:20.902Z,16.25
2017-06-17T00:25:47.659Z,16.16
2017-06-17T00:28:14.377Z,16.25
2017-06-17T00:30:41.195Z,16.11
2017-06-17T00:33:07.947Z,16.05
2017-06-17T00:35:34.699Z,15.89
2017-06-17T00:38:01.555Z,15.97
2017-06-17T00:40:28.299Z,15.96
2017-06-17T00:42:55.090Z,15.86
2017-06-17T00:45:21.813Z,15.90
2017-06-17T00:47:48.568Z,15.90
2017-06-17T00:50:15.329Z,15.74
2017-06-17T00:52:44.362Z,15.92
2017-06-17T00:55:12.771Z,15.86
2017-06-17T00:57:39.498Z,15.78
2017-06-17T01:00:06.268Z,15.90
2017-06-17T01:02:32.994Z,15.92
2017-06-17T01:04:59.735Z,15.77
2017-06-17T01:07:26.529Z,15.80
2017-06-17T01:09:53.300Z,15.91
2017-06-17T01:12:20.032Z,15.91
2017-06-17T01:14:46.832Z,15.82
2017-06-17T01:17:13.580Z,15.96
2017-06-17T01:19:40.413Z,15.97
2017-06-17T01:22:07.134Z,16.07
2017-06-17T01:24:33.921Z,16.08
2017-06-17T01:27:00.753Z,16.17
2017-06-17T01:29:27.526Z,16.07
2017-06-17T01:31:54.346Z,16.13
2017-06-17T01:34:21.093Z,16.06
2017-06-17T01:36:47.873Z,16.00
2017-06-17T01:39:14.701Z,16.07
2017-06-17T01:41:41.457Z,16.08
2017-06-17T01:44:08.243Z,15.96
2017-06-17T01:46:35.033Z,15.96
2017-06-17T01:49:01.828Z,15.98
2017-06-17T01:51:28.647Z,16.04
2017-06-17T01:53:55.442Z,16.03
2017-06-17T01:56:22.236Z,15.91
2017-06-17T01:58:49.095Z,15.87
2017-06-17T02:01:15.835Z,15.81
2017-06-17T02:03:42.644Z,15.87
2017-06-17T02:06:09.362Z,15.73
2017-06-17T02:08:36.168Z,15.81
2017-06-17T02:11:02.945Z,15.79
2017-06-17T02:13:29.701Z,15.81
2017-06-17T02:15:56.457Z,15.79
2017-06-17T02:18:23.242Z,15.70
2017-06-17T02:20:50.110Z,15.69
2017-06-17T02:23:16.893Z,15.68
2017-06-17T02:25:43.605Z,15.71
2017-06-17T02:28:10.373Z,15.64
2017-06-17T02:30:37.144Z,15.51
2017-06-17T02:33:04.014Z,15.59
2017-06-17T02:35:30.765Z,15.61
2017-06-17T02:38:04.293Z,15.52
2017-06-17T02:40:31.188Z,15.60
2017-06-17T02:42:58.002Z,15.50
2017-06-17T02:45:24.818Z,15.50
2017-06-17T02:47:51.562Z,15.60
2017-06-17T02:50:18.304Z,15.49
2017-06-17T02:52:45.067Z,15.60
2017-06-17T02:55:11.885Z,15.61
2017-06-17T02:57:38.725Z,15.67
2017-06-17T03:00:05.518Z,15.61
2017-06-17T03:02:32.278Z,15.54
2017-06-17T03:04:59.071Z,15.49
2017-06-17T03:07:25.867Z,15.51
2017-06-17T03:09:52.694Z,15.50
2017-06-17T03:12:19.448Z,15.54
2017-06-17T03:14:46.194Z,15.58
2017-06-17T03:17:12.960Z,15.61
2017-06-17T03:19:42.804Z,15.53
2017-06-17T03:22:10.671Z,15.61
2017-06-17T03:24:37.477Z,15.64
2017-06-17T03:27:04.262Z,15.66
2017-06-17T03:29:31.079Z,15.63
2017-06-17T03:31:57.848Z,15.63
2017-06-17T03:34:24.671Z,15.67
2017-06-17T03:36:51.399Z,15.73
2017-06-17T03:39:18.125Z,15.79
2017-06-17T03:41:44.891Z,15.74
2017-06-17T03:44:11.717Z,15.75
2017-06-17T03:46:38.533Z,15.68
2017-06-17T03:49:05.252Z,15.74
2017-06-17T03:51:31.962Z,15.72
2017-06-17T03:54:00.704Z,15.77
2017-06-17T03:56:28.900Z,15.79
2017-06-17T03:58:56.921Z,15.75
2017-06-17T04:01:26.711Z,15.87
2017-06-17T04:03:54.411Z,15.86
2017-06-17T04:06:24.627Z,15.94
2017-06-17T04:08:54.379Z,15.79
2017-06-17T04:11:23.831Z,15.77
2017-06-17T04:13:54.791Z,15.67
2017-06-17T04:16:25.315Z,15.67
2017-06-17T04:18:53.425Z,15.65
2017-06-17T04:21:20.219Z,15.65
2017-06-17T04:23:50.765Z,15.79
2017-06-17T04:26:19.296Z,15.80
2017-06-17T04:28:47.674Z,15.85
2017-06-17T04:31:17.250Z,15.88
2017-06-17T04:33:45.546Z,15.98
2017-06-17T04:36:15.536Z,16.11
2017-06-17T04:38:45.035Z,16.18
2017-06-17T04:41:13.389Z,16.33
2017-06-17T04:43:42.811Z,16.35
2017-06-17T04:46:13.424Z,16.18
2017-06-17T04:48:43.771Z,16.07
2017-06-17T04:51:13.752Z,16.08
2017-06-17T04:53:42.672Z,16.22
2017-06-17T04:56:12.713Z,16.18
2017-06-17T04:58:42.904Z,16.16
2017-06-17T05:01:13.725Z,16.06
2017-06-17T05:03:44.603Z,16.09
2017-06-17T05:06:12.931Z,15.99
2017-06-17T05:08:42.917Z,16.01
2017-06-17T05:11:13.413Z,16.05
2017-06-17T05:13:42.085Z,16.13
2017-06-17T05:16:11.335Z,16.04
2017-06-17T05:18:40.737Z,16.05
2017-06-17T05:21:08.522Z,15.98
2017-06-17T05:23:35.337Z,16.15
2017-06-17T05:26:04.416Z,16.07
2017-06-17T05:28:34.904Z,16.14
2017-06-17T05:31:02.902Z,16.15
2017-06-17T05:33:32.393Z,16.06
2017-06-17T05:36:01.792Z,16.03
2017-06-17T05:38:31.317Z,16.01
2017-06-17T05:40:58.117Z,15.99
2017-06-17T05:43:24.922Z,16.01
2017-06-17T05:45:51.689Z,16.08
2017-06-17T05:48:18.496Z,15.88
2017-06-17T05:50:45.242Z,16.01
2017-06-17T05:53:12.094Z,15.94
2017-06-17T05:55:38.894Z,15.88
2017-06-17T05:58:05.645Z,15.97
2017-06-17T06:00:32.442Z,16.11
2017-06-17T06:02:59.225Z,16.03
2017-06-17T06:05:35.042Z,16.22
2017-06-17T06:08:14.989Z,16.27
2017-06-17T06:10:54.809Z,16.20
2017-06-17T06:13:33.536Z,16.11
2017-06-17T06:16:03.383Z,16.10
2017-06-17T06:18:30.148Z,16.15
2017-06-17T06:20:56.875Z,16.19
2017-06-17T06:23:23.679Z,16.14
2017-06-17T06:25:50.407Z,16.24
2017-06-17T06:28:17.171Z,16.45
2017-06-17T06:30:43.917Z,16.54
2017-06-17T06:33:10.673Z,16.80
2017-06-17T06:35:37.426Z,17.05
2017-06-17T06:38:04.311Z,17.07
2017-06-17T06:40:31.077Z,16.99
2017-06-17T06:42:57.829Z,16.97
2017-06-17T06:45:24.604Z,16.98
2017-06-17T06:47:51.411Z,16.90
2017-06-17T06:50:18.120Z,16.83
2017-06-17T06:52:44.870Z,16.90
2017-06-17T06:55:11.684Z,16.84
2017-06-17T06:57:38.464Z,17.02
2017-06-17T07:00:05.273Z,16.89
2017-06-17T07:02:32.760Z,16.89
2017-06-17T07:04:59.651Z,16.96
2017-06-17T07:07:26.385Z,16.93
2017-06-17T07:09:53.165Z,17.11
2017-06-17T07:12:20.002Z,17.09
2017-06-17T07:14:46.759Z,17.27
2017-06-17T07:17:13.602Z,17.26
2017-06-17T07:19:40.380Z,17.13
2017-06-17T07:22:07.127Z,17.18
2017-06-17T07:24:33.889Z,17.32
2017-06-17T07:27:00.604Z,17.50
2017-06-17T07:29:35.705Z,17.76
2017-06-17T07:32:14.470Z,17.81
2017-06-17T07:34:46.913Z,17.55
2017-06-17T07:37:13.654Z,17.72
2017-06-17T07:39:40.412Z,17.63
2017-06-17T07:42:07.179Z,17.52
2017-06-17T07:44:33.909Z,17.66
2017-06-17T07:47:00.706Z,17.78
2017-06-17T07:49:27.470Z,17.71
2017-06-17T07:51:54.180Z,17.83
2017-06-17T07:54:20.931Z,17.81
2017-06-17T07:56:47.676Z,17.84
2017-06-17T07:59:14.465Z,17.90
2017-06-17T08:01:41.189Z,18.05
2017-06-17T08:04:07.873Z,18.39
2017-06-17T08:06:34.620Z,18.33
2017-06-17T08:09:01.350Z,18.12
2017-06-17T08:11:28.171Z,18.05
2017-06-17T08:14:03.609Z,17.90
2017-06-17T08:16:33.637Z,17.84
2017-06-17T08:19:00.332Z,17.62
2017-06-17T08:21:27.034Z,17.73
2017-06-17T08:23:53.775Z,17.72
2017-06-17T08:26:20.465Z,17.74
2017-06-17T08:31:47.763Z,18.48
2017-06-17T08:34:14.528Z,18.53
2017-06-17T08:36:41.344Z,18.31
2017-06-17T08:39:08.098Z,18.06
2017-06-17T08:41:34.830Z,17.99
2017-06-17T08:44:01.592Z,18.02
2017-06-17T08:46:28.343Z,18.23
2017-06-17T08:48:55.093Z,18.13
2017-06-17T08:51:21.872Z,18.42
2017-06-17T08:53:48.633Z,18.55
2017-06-17T08:56:15.423Z,18.52
2017-06-17T08:58:42.177Z,18.48
2017-06-17T09:01:08.971Z,18.35
2017-06-17T09:03:35.709Z,18.35
2017-06-17T09:06:02.424Z,18.25
2017-06-17T09:08:29.191Z,18.24
2017-06-17T09:10:55.913Z,18.33
2017-06-17T09:13:22.701Z,18.61
2017-06-17T09:15:49.448Z,19.07
2017-06-17T09:18:16.142Z,19.39
2017-06-17T09:20:42.877Z,19.27
2017-06-17T09:23:09.650Z,19.41
2017-06-17T09:25:36.416Z,19.46
2017-06-17T09:28:03.125Z,19.25
2017-06-17T09:30:29.874Z,19.30
2017-06-17T09:32:56.649Z,19.67
2017-06-17T09:35:23.363Z,19.54
2017-06-17T09:37:50.224Z,19.52
2017-06-17T09:40:16.953Z,19.55
2017-06-17T09:42:43.659Z,19.42
2017-06-17T09:45:10.418Z,19.49
2017-06-17T09:47:37.143Z,19.15
2017-06-17T09:50:03.961Z,19.02
2017-06-17T09:52:30.692Z,19.29
2017-06-17T09:54:57.443Z,19.52
2017-06-17T09:57:24.347Z,19.81
2017-06-17T09:59:51.114Z,19.76
2017-06-17T10:02:17.874Z,19.54
2017-06-17T10:04:44.620Z,19.33
2017-06-17T10:07:11.403Z,19.15
2017-06-17T10:09:38.193Z,19.60
2017-06-17T10:12:04.961Z,19.60
2017-06-17T10:14:31.798Z,19.42
2017-06-17T10:16:58.521Z,19.28
2017-06-17T10:19:25.233Z,19.53
2017-06-17T10:21:52.010Z,19.51
2017-06-17T10:24:18.692Z,19.62
2017-06-17T10:26:45.424Z,19.91
2017-06-17T10:29:12.226Z,20.13
2017-06-17T10:31:38.945Z,20.26
2017-06-17T10:34:05.690Z,20.30
2017-06-17T10:36:32.437Z,20.21
2017-06-17T10:38:59.188Z,20.08
2017-06-17T10:41:25.947Z,20.01
2017-06-17T10:43:52.680Z,20.15
2017-06-17T10:46:19.387Z,20.35
2017-06-17T10:48:46.114Z,20.42
2017-06-17T10:51:12.938Z,20.45
2017-06-17T10:53:39.714Z,20.41
2017-06-17T10:56:06.429Z,20.37
2017-06-17T10:58:33.125Z,19.88
2017-06-17T11:01:07.335Z,19.96
2017-06-17T11:03:36.602Z,20.02
2017-06-17T11:06:03.371Z,20.00
2017-06-17T11:08:30.102Z,20.31
2017-06-17T11:10:56.787Z,20.71
2017-06-17T11:13:23.780Z,20.84
2017-06-17T11:15:50.497Z,20.96
2017-06-17T11:18:17.265Z,21.08
2017-06-17T11:20:43.970Z,21.14
2017-06-17T11:23:10.673Z,21.16
2017-06-17T11:25:37.902Z,21.01
2017-06-17T11:28:04.629Z,21.14
2017-06-17T11:30:31.422Z,20.85
2017-06-17T11:32:58.142Z,20.95
2017-06-17T11:35:24.898Z,21.19
2017-06-17T11:37:51.685Z,21.54
2017-06-17T11:40:18.385Z,21.33
2017-06-17T11:42:45.156Z,21.33
2017-06-17T11:45:11.940Z,21.40
2017-06-17T11:47:38.681Z,21.27
2017-06-17T11:50:05.419Z,21.10
2017-06-17T11:52:32.162Z,21.17
2017-06-17T11:54:58.893Z,21.11
2017-06-17T11:57:25.596Z,21.10
2017-06-17T11:59:52.338Z,21.12
2017-06-17T12:02:19.070Z,21.11
2017-06-17T12:04:45.809Z,21.26
2017-06-17T12:07:12.621Z,21.39
2017-06-17T12:09:39.345Z,21.72
2017-06-17T12:12:06.078Z,21.85
2017-06-17T12:14:32.848Z,22.08
2017-06-17T12:16:59.552Z,22.02
2017-06-17T12:19:26.311Z,22.04
2017-06-17T12:21:53.001Z,21.86
2017-06-17T12:24:24.671Z,21.63
2017-06-17T12:26:55.209Z,21.83
2017-06-17T12:29:21.915Z,21.99
2017-06-17T12:31:48.666Z,21.99
2017-06-17T12:34:15.361Z,21.93
2017-06-17T12:36:42.083Z,21.70
2017-06-17T12:39:08.822Z,21.75
2017-06-17T12:41:35.525Z,21.87
2017-06-17T12:44:02.288Z,22.03
2017-06-17T12:46:29.025Z,21.89
2017-06-17T12:48:55.740Z,21.96
2017-06-17T12:51:22.486Z,22.06
2017-06-17T12:53:49.232Z,22.09
2017-06-17T12:56:15.993Z,22.14
2017-06-17T12:58:42.701Z,22.28
2017-06-17T13:01:09.427Z,22.39
2017-06-17T13:03:36.146Z,22.50
2017-06-17T13:06:11.803Z,22.38
2017-06-17T13:08:40.097Z,22.26
2017-06-17T13:11:06.814Z,22.01
2017-06-17T13:13:33.504Z,22.09
2017-06-17T13:16:00.272Z,22.26
2017-06-17T13:18:26.978Z,22.36
2017-06-17T13:20:53.718Z,22.50
2017-06-17T13:23:20.411Z,22.61
2017-06-17T13:25:47.169Z,22.26
2017-06-17T13:28:13.901Z,22.18
2017-06-17T13:30:40.617Z,22.06
2017-06-17T13:33:07.374Z,22.27
2017-06-17T13:35:34.090Z,22.45
2017-06-17T13:38:00.805Z,22.48
2017-06-17T13:40:27.529Z,22.64
2017-06-17T13:42:54.254Z,22.82
2017-06-17T13:45:21.036Z,22.56
2017-06-17T13:47:47.737Z,22.64
2017-06-17T13:50:14.471Z,22.37
2017-06-17T13:52:41.202Z,22.33
2017-06-17T13:55:07.954Z,22.35
2017-06-17T13:57:34.756Z,22.44
2017-06-17T14:00:01.506Z,22.26
2017-06-17T14:02:28.221Z,22.26
2017-06-17T14:04:54.949Z,22.16
2017-06-17T14:07:21.677Z,22.14
2017-06-17T14:09:48.433Z,22.09
2017-06-17T14:12:15.154Z,22.12
2017-06-17T14:14:41.881Z,22.20
2017-06-17T14:17:08.609Z,21.89
2017-06-17T14:19:35.313Z,21.92
2017-06-17T14:22:08.077Z,21.93
2017-06-17T14:24:34.780Z,22.01
2017-06-17T14:27:01.473Z,21.99
2017-06-17T14:29:28.214Z,22.09
2017-06-17T14:31:54.922Z,22.30
2017-06-17T14:34:21.637Z,22.36
2017-06-17T14:36:48.404Z,22.39
2017-06-17T14:39:15.157Z,22.58
2017-06-17T14:41:41.903Z,22.67
2017-06-17T14:44:08.697Z,22.43
2017-06-17T14:46:35.407Z,22.31
2017-06-17T14:49:02.123Z,22.29
2017-06-17T14:51:28.853Z,22.24
2017-06-17T14:53:55.644Z,22.18
2017-06-17T14:56:22.411Z,22.09
2017-06-17T14:58:49.159Z,22.17
2017-06-17T15:01:15.942Z,22.43
2017-06-17T15:03:42.639Z,22.56
2017-06-17T15:06:09.382Z,22.68
2017-06-17T15:08:36.093Z,22.75
2017-06-17T15:11:02.829Z,22.67
2017-06-17T15:13:29.565Z,22.42
2017-06-17T15:15:56.282Z,22.40
2017-06-17T15:18:23.059Z,22.18
2017-06-17T15:20:49.781Z,22.11
2017-06-17T15:23:16.505Z,22.20
2017-06-17T15:25:43.258Z,22.24
2017-06-17T15:28:09.990Z,22.28
2017-06-17T15:30:36.762Z,22.25
2017-06-17T15:33:03.477Z,22.36
2017-06-17T15:35:30.187Z,22.10
2017-06-17T15:37:56.905Z,21.90
2017-06-17T15:40:23.635Z,21.93
2017-06-17T15:42:50.376Z,21.84
2017-06-17T15:45:17.089Z,21.69
2017-06-17T15:47:43.868Z,21.61
2017-06-17T15:50:10.592Z,21.58
2017-06-17T15:52:41.115Z,21.64
2017-06-17T15:55:07.849Z,21.62
2017-06-17T15:57:34.590Z,21.87
2017-06-17T16:00:01.375Z,21.92
2017-06-17T16:02:28.162Z,21.98
2017-06-17T16:04:54.933Z,22.08
2017-06-17T16:07:21.717Z,22.10
2017-06-17T16:09:48.473Z,22.00
2017-06-17T16:12:15.295Z,21.99
2017-06-17T16:14:42.049Z,21.90
2017-06-17T16:17:08.794Z,21.84
2017-06-17T16:19:35.567Z,21.77
2017-06-17T16:22:02.329Z,21.80
2017-06-17T16:24:29.052Z,21.80
2017-06-17T16:26:55.942Z,21.77
2017-06-17T16:29:22.681Z,21.83
2017-06-17T16:31:49.437Z,21.82
2017-06-17T16:34:21.251Z,21.87
2017-06-17T16:36:47.940Z,21.85
2017-06-17T16:39:14.695Z,21.71
2017-06-17T16:41:41.413Z,21.72
2017-06-17T16:44:08.186Z,21.80
2017-06-17T16:46:35.001Z,21.82
2017-06-17T16:49:01.740Z,21.70
2017-06-17T16:51:28.513Z,21.75
2017-06-17T16:53:55.229Z,21.76
2017-06-17T16:56:21.991Z,21.84
2017-06-17T16:58:48.718Z,21.90
2017-06-17T17:01:15.469Z,22.00
2017-06-17T17:03:42.217Z,22.08
2017-06-17T17:06:08.947Z,22.17
2017-06-17T17:08:35.727Z,22.13
2017-06-17T17:11:02.431Z,22.00
2017-06-17T17:13:29.170Z,21.98
2017-06-17T17:16:01.669Z,21.97
2017-06-17T17:18:28.407Z,21.81
2017-06-17T17:20:55.121Z,21.66
2017-06-17T17:23:21.838Z,21.56
2017-06-17T17:25:48.575Z,21.60
2017-06-17T17:28:15.283Z,21.49
2017-06-17T17:30:42.033Z,21.55
2017-06-17T17:33:08.778Z,21.52
2017-06-17T17:35:35.593Z,21.49
2017-06-17T17:38:02.325Z,21.51
2017-06-17T17:40:29.059Z,21.51
2017-06-17T17:42:55.794Z,21.54
2017-06-17T17:45:22.497Z,21.47
2017-06-17T17:47:49.217Z,21.39
2017-06-17T17:50:15.976Z,21.45
2017-06-17T17:52:42.745Z,21.42
2017-06-17T17:55:09.507Z,21.32
2017-06-17T17:57:42.605Z,21.32
2017-06-17T18:00:09.409Z,21.27
2017-06-17T18:02:36.137Z,21.23
2017-06-17T18:05:02.898Z,21.24
2017-06-17T18:07:29.637Z,21.23
2017-06-17T18:09:56.441Z,21.17
2017-06-17T18:12:23.149Z,21.19
2017-06-17T18:14:49.881Z,21.18
2017-06-17T18:17:16.615Z,21.03
2017-06-17T18:19:43.350Z,20.99
2017-06-17T18:22:10.077Z,20.99
2017-06-17T18:24:36.776Z,21.07
2017-06-17T18:27:03.548Z,21.09
2017-06-17T18:29:30.248Z,21.00
2017-06-17T18:31:56.978Z,20.97
2017-06-17T18:34:23.778Z,20.87
2017-06-17T18:36:50.519Z,20.87
2017-06-17T18:39:17.286Z,20.86
2017-06-17T18:41:44.013Z,20.84
2017-06-17T18:44:10.726Z,20.82
2017-06-17T18:46:37.472Z,20.79
2017-06-17T18:49:04.196Z,20.79
2017-06-17T18:51:30.925Z,20.72
2017-06-17T18:53:57.645Z,20.65
2017-06-17T18:56:24.455Z,20.68
2017-06-17T18:58:51.204Z,20.65
2017-06-17T19:01:17.942Z,20.70
2017-06-17T19:03:44.669Z,20.66
2017-06-17T19:06:11.376Z,20.71
2017-06-17T19:08:38.131Z,20.58
2017-06-17T19:11:04.847Z,20.47
2017-06-17T19:13:31.551Z,20.44
2017-06-17T19:15:58.278Z,20.36
2017-06-17T19:18:25.105Z,20.26
2017-06-17T19:20:51.830Z,20.16
2017-06-17T19:23:18.537Z,20.11
2017-06-17T19:25:45.304Z,20.08
2017-06-17T19:28:12.069Z,20.07
2017-06-17T19:30:38.854Z,20.09
2017-06-17T19:33:05.636Z,19.90
2017-06-17T19:35:32.358Z,19.87
2017-06-17T19:37:59.109Z,19.90
2017-06-17T19:40:25.885Z,19.80
2017-06-17T19:42:55.347Z,19.86
2017-06-17T19:45:24.878Z,19.73
2017-06-17T19:47:54.788Z,19.73
2017-06-17T19:50:25.536Z,19.77
2017-06-17T19:52:53.252Z,19.75
2017-06-17T19:55:19.995Z,19.60
2017-06-17T19:57:50.119Z,19.63
2017-06-17T20:00:20.599Z,19.54
2017-06-17T20:02:50.006Z,19.50
2017-06-17T20:05:18.051Z,19.54
2017-06-17T20:07:48.339Z,19.45
2017-06-17T20:10:17.791Z,19.46
2017-06-17T20:12:45.265Z,19.45
2017-06-17T20:15:14.205Z,19.37
2017-06-17T20:17:43.068Z,19.23
2017-06-17T20:20:10.712Z,19.27
2017-06-17T20:22:52.324Z,19.21
2017-06-17T20:25:21.420Z,19.22
2017-06-17T20:27:48.178Z,19.29
2017-06-17T20:30:14.910Z,19.26
2017-06-17T20:32:41.637Z,19.17
2017-06-17T20:35:08.403Z,19.13
2017-06-17T20:37:35.146Z,19.11
2017-06-17T20:40:02.037Z,19.09
2017-06-17T20:42:28.802Z,19.04
2017-06-17T20:44:55.492Z,18.95
2017-06-17T20:47:22.206Z,19.01
2017-06-17T20:49:48.928Z,18.97
2017-06-17T20:52:15.670Z,19.04
2017-06-17T20:54:42.393Z,18.90
2017-06-17T20:57:09.128Z,18.86
2017-06-17T20:59:35.847Z,18.86
2017-06-17T21:02:02.593Z,18.77
2017-06-17T21:04:32.694Z,18.85
2017-06-17T21:07:00.993Z,18.80
2017-06-17T21:09:27.738Z,18.68
2017-06-17T21:11:54.485Z,18.86
2017-06-17T21:14:21.180Z,18.70
2017-06-17T21:16:47.930Z,18.62
2017-06-17T21:19:14.650Z,18.61
2017-06-17T21:21:41.406Z,18.55
2017-06-17T21:24:08.131Z,18.61
2017-06-17T21:26:34.888Z,18.55
2017-06-17T21:29:01.640Z,18.50
2017-06-17T21:31:28.361Z,18.47
2017-06-17T21:33:55.150Z,18.43
2017-06-17T21:36:21.901Z,18.39
2017-06-17T21:38:48.620Z,18.40
2017-06-17T21:41:15.369Z,18.30
2017-06-17T21:43:42.093Z,18.25
2017-06-17T21:46:09.447Z,18.29
2017-06-17T21:48:36.371Z,18.16
2017-06-17T21:51:03.119Z,18.27
2017-06-17T21:53:29.813Z,18.21
2017-06-17T21:55:56.530Z,18.19
2017-06-17T21:58:23.257Z,18.32
2017-06-17T22:00:49.986Z,18.16
2017-06-17T22:03:16.762Z,18.21
2017-06-17T22:05:43.473Z,18.18
2017-06-17T22:08:10.193Z,18.20
2017-06-17T22:10:36.980Z,18.16
2017-06-17T22:13:03.726Z,18.10
2017-06-17T22:15:30.461Z,18.16
2017-06-17T22:17:57.202Z,18.16
2017-06-17T22:20:23.965Z,18.24
2017-06-17T22:22:50.726Z,18.16
2017-06-17T22:25:17.466Z,18.09
2017-06-17T22:27:44.240Z,18.02
2017-06-17T22:30:10.958Z,17.92
2017-06-17T22:32:37.673Z,17.95
2017-06-17T22:35:04.461Z,17.88
2017-06-17T22:37:31.225Z,17.86
2017-06-17T22:39:57.982Z,17.83
2017-06-17T22:42:24.797Z,17.80
2017-06-17T22:44:51.553Z,17.81
2017-06-17T22:47:18.249Z,17.76
2017-06-17T22:49:44.933Z,17.68
2017-06-17T22:52:11.695Z,17.67
2017-06-17T22:54:38.410Z,17.68
2017-06-17T22:57:05.214Z,17.65
2017-06-17T22:59:31.934Z,17.70
2017-06-17T23:01:58.653Z,17.62
2017-06-17T23:04:25.560Z,17.57
2017-06-17T23:06:52.269Z,17.61
2017-06-17T23:09:28.289Z,17.57
2017-06-17T23:11:55.194Z,17.47
2017-06-17T23:14:21.963Z,17.54
2017-06-17T23:16:48.726Z,17.45
2017-06-17T23:19:15.519Z,17.40
2017-06-17T23:21:42.260Z,17.33
2017-06-17T23:24:09.010Z,17.41
2017-06-17T23:26:35.747Z,17.32
2017-06-17T23:29:02.463Z,17.38
2017-06-17T23:31:29.193Z,17.31
2017-06-17T23:33:55.950Z,17.33
2017-06-17T23:36:22.693Z,17.26
2017-06-17T23:38:49.545Z,17.18
2017-06-17T23:41:16.268Z,17.21
2017-06-17T23:43:43.015Z,17.13
2017-06-17T23:46:09.722Z,17.14
2017-06-17T23:48:36.643Z,17.14
2017-06-17T23:51:07.479Z,17.06
2017-06-17T23:53:34.800Z,16.99
2017-06-17T23:56:01.657Z,17.01
2017-06-17T23:58:28.409Z,17.04
